Franklin, NC (28734)

8:12 PM EDT on July 29, 2016 (GMT -0400)
Piney Grove | | Change Station

Elev 2261 ft 35.24 °N, 83.38 °W | Updated 31 seconds ago

Clear
Clear
76.5 °F
Feels Like 78 °F
N
0.0
Wind Variable Wind from SSW
Gusts 1.0 mph

Today
High -- | Low -- °F
--% Chance of Precip.
Yesterday
High -- | Low -- °F
Precip. -- in
Pressure 30.02 in
Visibility 10.0 miles
Clouds Clear
Heat Index 78 °F
Dew Point 71 °F
Humidity 84%
Rainfall 0.12 in
Snow Depth Not available.
6:40 AM 8:38 PM
Waning Crescent, 18% visible
METAR K1A5 292340Z AUTO 00000KT 10SM CLR 26/20 A3002 RMK AO2 T02630203
Pressure 30.02 in
Visibility 10.0 miles
Clouds Clear
Heat Index 78 °F
Dew Point 71 °F
Humidity 84%
Rainfall 0.12 in
Snow Depth Not available.
6:40 AM 8:38 PM
Waning Crescent, 18% visible
METAR K1A5 292340Z AUTO 00000KT 10SM CLR 26/20 A3002 RMK AO2 T02630203

10-Day Weather Forecast

Almanac

Astronomy

Jul. 29, 2016 Rise Set
Actual Time
Civil Twilight
Nautical Twilight
Astronomical Twilight
Moon
Length of Visible Light
Length of Day
Tomorrow will be .
, % of the Moon is Illuminated

Today's Extremes

State Highs State Lows

Community

WunderPhotos

Upload Photos

1,928,449 photos uploaded!

WunderBlog® & News

Nearby

Air Quality

  Air Quality AQ Index Pollutant
Not available.

Snow Depth

Station Depth Elevation

Earthquake Activity

City Distance Mag. Time & Date
Minimum magnitude displayed is 2.5.

Coastal Water Temperatures

Place Temperature

Stations

Nearby Weather Stations

Station Location Temp. Windchill Dew Point Humidity Wind Precip. Elev Updated Type
                   

Watches & Warnings

There are currently no watches in effect.